createdAt,value
2019-04-23T00:01:43.578Z,2.70
2019-04-23T00:04:07.153Z,3.00
2019-04-23T00:06:43.337Z,2.60
2019-04-23T00:09:27.433Z,2.70
2019-04-23T00:11:48.239Z,2.63
2019-04-23T00:14:20.656Z,2.67
2019-04-23T00:16:50.320Z,2.70
2019-04-23T00:19:20.351Z,3.00
2019-04-23T00:21:57.376Z,2.43
2019-04-23T00:32:28.797Z,2.40
2019-04-23T00:35:02.482Z,2.80
2019-04-23T00:39:56.613Z,3.20
2019-04-23T00:42:40.467Z,2.67
2019-04-23T00:45:01.468Z,2.83
2019-04-23T00:47:41.419Z,3.10
2019-04-23T00:50:15.968Z,4.03
2019-04-23T00:52:38.856Z,5.00
2019-04-23T00:57:40.569Z,5.10
2019-04-23T01:07:51.856Z,4.50
2019-04-23T01:10:27.096Z,4.23
2019-04-23T01:13:07.054Z,3.87
2019-04-23T01:15:32.830Z,3.97
2019-04-23T01:18:20.320Z,3.63
2019-04-23T01:20:44.152Z,3.27
2019-04-23T01:22:54.881Z,2.97
2019-04-23T01:25:40.744Z,3.37
2019-04-23T01:28:26.607Z,3.80
2019-04-23T01:31:02.549Z,3.53
2019-04-23T01:38:41.840Z,3.43
2019-04-23T01:41:09.544Z,3.50
2019-04-23T01:46:08.326Z,3.90
2019-04-23T01:48:42.401Z,3.70
2019-04-23T01:51:14.325Z,3.70
2019-04-23T01:53:45.709Z,3.80
2019-04-23T01:56:14.431Z,3.37
2019-04-23T01:58:53.630Z,3.27
2019-04-23T02:01:26.974Z,3.53
2019-04-23T02:03:54.377Z,3.87
2019-04-23T02:06:29.684Z,3.57
2019-04-23T02:08:59.453Z,4.00
2019-04-23T02:11:28.580Z,3.50
2019-04-23T02:14:01.716Z,3.77
2019-04-23T02:16:39.207Z,4.03
2019-04-23T02:19:03.101Z,4.23
2019-04-23T02:21:43.973Z,4.63
2019-04-23T02:24:24.722Z,3.50
2019-04-23T02:29:23.697Z,3.83
2019-04-23T02:31:58.049Z,4.20
2019-04-23T02:34:31.325Z,4.20
2019-04-23T02:36:55.151Z,4.00
2019-04-23T02:39:31.184Z,3.43
2019-04-23T02:44:26.277Z,3.57
2019-04-23T02:47:10.285Z,4.30
2019-04-23T02:57:11.477Z,4.03
2019-04-23T03:09:56.500Z,3.90
2019-04-23T03:15:21.751Z,4.03
2019-04-23T03:18:16.107Z,4.50
2019-04-23T03:20:48.857Z,3.50
2019-04-23T03:23:27.450Z,3.90
2019-04-23T03:25:56.569Z,4.20
2019-04-23T03:28:37.883Z,4.33
2019-04-23T03:32:45.668Z,3.93
2019-04-23T03:41:15.815Z,3.67
2019-04-23T03:43:38.961Z,4.17
2019-04-23T03:46:15.947Z,4.00
2019-04-23T03:51:13.052Z,3.83
2019-04-23T03:53:52.264Z,3.80
2019-04-23T03:56:22.896Z,3.77
2019-04-23T04:01:23.592Z,4.50
2019-04-23T04:06:42.818Z,4.37
2019-04-23T04:11:21.884Z,3.90
2019-04-23T04:14:20.737Z,4.43
2019-04-23T04:16:28.397Z,4.30
2019-04-23T04:19:06.482Z,4.37
2019-04-23T04:21:36.330Z,5.20
2019-04-23T04:31:53.566Z,4.10
2019-04-23T04:34:21.862Z,5.23
2019-04-23T04:39:06.328Z,4.60
2019-04-23T04:44:37.708Z,4.67
2019-04-23T04:46:49.915Z,4.50
2019-04-23T04:49:21.460Z,4.83
2019-04-23T04:52:03.187Z,4.63
2019-04-23T04:54:18.898Z,4.47
2019-04-23T04:59:25.790Z,4.63
2019-04-23T05:12:14.455Z,7.30
2019-04-23T05:14:43.928Z,16.90
2019-04-23T05:24:41.360Z,5.60
2019-04-23T05:27:13.947Z,19.20
2019-04-23T05:29:48.416Z,23.23
2019-04-23T05:32:15.633Z,6.13
2019-04-23T05:34:48.589Z,6.53
2019-04-23T05:37:28.276Z,9.40
2019-04-23T05:40:00.494Z,7.13
2019-04-23T05:42:19.795Z,6.30
2019-04-23T05:44:53.956Z,9.77
2019-04-23T05:47:27.362Z,6.23
2019-04-23T05:50:00.700Z,5.83
2019-04-23T05:52:29.745Z,8.20
2019-04-23T05:55:02.436Z,8.30
2019-04-23T05:57:26.916Z,14.40
2019-04-23T06:00:03.354Z,11.27
2019-04-23T06:02:45.955Z,7.17
2019-04-23T06:05:10.376Z,7.90
2019-04-23T06:12:42.268Z,5.83
2019-04-23T06:15:13.324Z,6.10
2019-04-23T06:18:01.946Z,7.13
2019-04-23T06:20:18.204Z,6.07
2019-04-23T06:22:49.570Z,14.27
2019-04-23T06:25:30.753Z,6.33
2019-04-23T06:27:57.528Z,10.60
2019-04-23T06:30:25.735Z,8.10
2019-04-23T06:32:53.178Z,8.43
2019-04-23T06:35:22.430Z,8.90
2019-04-23T06:40:27.403Z,6.43
2019-04-23T06:43:11.573Z,7.27
2019-04-23T06:45:37.415Z,6.60
2019-04-23T06:48:15.499Z,8.50
2019-04-23T06:50:54.550Z,9.37
2019-04-23T06:53:14.849Z,13.33
2019-04-23T06:55:50.679Z,19.37
2019-04-23T06:58:25.438Z,9.97
2019-04-23T07:00:55.891Z,7.17
2019-04-23T07:06:19.174Z,10.07
2019-04-23T07:08:56.243Z,8.13
2019-04-23T07:11:18.878Z,14.07
2019-04-23T07:16:12.856Z,12.43
2019-04-23T07:21:18.298Z,7.93
2019-04-23T07:24:00.721Z,6.13
2019-04-23T07:28:53.181Z,5.93
2019-04-23T07:31:33.718Z,5.60
2019-04-23T07:33:59.630Z,6.00
2019-04-23T07:36:32.371Z,5.67
2019-04-23T07:48:01.834Z,6.20
2019-04-23T07:50:35.255Z,6.07
2019-04-23T07:55:39.790Z,6.33
2019-04-23T07:58:06.660Z,5.77
2019-04-23T08:00:41.852Z,5.40
2019-04-23T08:03:10.494Z,6.33
2019-04-23T08:05:36.088Z,6.20
2019-04-23T08:08:07.514Z,5.83
2019-04-23T08:10:58.810Z,5.70
2019-04-23T08:13:16.260Z,5.17
2019-04-23T08:15:43.017Z,5.23
2019-04-23T08:18:26.312Z,5.60
2019-04-23T08:20:49.367Z,5.47
2019-04-23T08:23:42.773Z,5.03
2019-04-23T08:29:12.762Z,5.10
2019-04-23T08:34:29.944Z,5.77
2019-04-23T08:36:50.017Z,5.47
2019-04-23T08:39:18.166Z,5.57
2019-04-23T08:42:09.475Z,5.30
2019-04-23T08:44:44.655Z,5.37
2019-04-23T08:47:15.614Z,5.47
2019-04-23T08:49:48.810Z,5.60
2019-04-23T08:52:18.649Z,5.40
2019-04-23T08:54:58.075Z,5.70
2019-04-23T08:57:18.948Z,5.23
2019-04-23T09:02:31.282Z,4.80
2019-04-23T09:04:54.067Z,4.70
2019-04-23T09:09:57.634Z,5.50
2019-04-23T09:12:32.048Z,5.07
2019-04-23T09:14:58.437Z,4.87
2019-04-23T09:17:34.839Z,4.90
2019-04-23T09:22:36.482Z,5.03
2019-04-23T09:30:06.988Z,5.77
2019-04-23T09:32:44.448Z,5.03
2019-04-23T09:35:36.021Z,5.13
2019-04-23T09:38:45.075Z,5.50
2019-04-23T09:41:27.666Z,5.07
2019-04-23T09:44:51.043Z,4.80
2019-04-23T09:47:24.416Z,4.50
2019-04-23T09:49:54.066Z,5.23
2019-04-23T09:52:13.369Z,5.17
2019-04-23T09:54:48.832Z,5.33
2019-04-23T09:57:11.076Z,4.73
2019-04-23T09:59:45.914Z,5.37
2019-04-23T10:02:06.682Z,5.10
2019-04-23T10:04:36.245Z,5.47
2019-04-23T10:07:07.230Z,4.70
2019-04-23T10:09:27.366Z,5.50
2019-04-23T10:11:56.817Z,5.27
2019-04-23T10:14:28.279Z,4.83
2019-04-23T10:16:59.877Z,4.57
2019-04-23T10:19:30.765Z,4.97
2019-04-23T10:22:01.769Z,5.00
2019-04-23T10:24:32.876Z,5.20
2019-04-23T10:27:04.043Z,5.20
2019-04-23T10:29:38.348Z,4.80
2019-04-23T10:32:09.474Z,5.00
2019-04-23T10:34:53.017Z,5.10
2019-04-23T10:37:11.468Z,4.90
2019-04-23T10:39:46.901Z,4.93
2019-04-23T10:42:14.215Z,5.00
2019-04-23T10:45:35.157Z,4.90
2019-04-23T10:48:40.249Z,4.97
2019-04-23T10:51:18.613Z,5.20
2019-04-23T10:54:02.808Z,5.20
2019-04-23T10:56:36.167Z,4.43
2019-04-23T10:58:54.417Z,5.20
2019-04-23T11:01:41.823Z,4.80
2019-04-23T11:04:21.476Z,5.23
2019-04-23T11:06:45.393Z,5.60
2019-04-23T11:09:27.435Z,5.50
2019-04-23T11:11:53.668Z,4.90
2019-04-23T11:14:25.280Z,5.27
2019-04-23T11:19:33.935Z,5.23
2019-04-23T11:22:20.959Z,5.43
2019-04-23T11:27:12.190Z,5.53
2019-04-23T11:29:38.778Z,5.17
2019-04-23T11:32:19.663Z,4.87
2019-04-23T11:37:18.601Z,5.12
2019-04-23T11:39:54.766Z,5.42
2019-04-23T11:48:07.561Z,5.40
2019-04-23T11:52:44.695Z,5.60
2019-04-23T11:54:53.473Z,5.50
2019-04-23T12:02:57.560Z,4.83
2019-04-23T12:05:52.368Z,4.85
2019-04-23T12:08:33.403Z,5.20
2019-04-23T12:11:35.492Z,4.97
2019-04-23T12:13:52.758Z,5.05
2019-04-23T12:16:35.876Z,5.37
2019-04-23T12:19:04.431Z,5.17
2019-04-23T12:21:28.288Z,4.83
2019-04-23T12:24:04.686Z,5.05
2019-04-23T12:26:40.236Z,5.35
2019-04-23T12:31:53.816Z,5.25
2019-04-23T12:34:09.784Z,5.35
2019-04-23T12:36:54.605Z,5.05
2019-04-23T12:42:25.127Z,5.00
2019-04-23T12:44:42.370Z,5.12
2019-04-23T12:47:18.791Z,5.22
2019-04-23T12:52:12.086Z,5.00
2019-04-23T12:57:18.665Z,4.50
2019-04-23T13:02:28.475Z,5.00
2019-04-23T13:04:51.777Z,5.50
2019-04-23T13:07:33.544Z,6.33
2019-04-23T13:15:05.314Z,6.20
2019-04-23T13:20:13.066Z,5.10
2019-04-23T13:22:51.548Z,5.53
2019-04-23T13:25:34.972Z,4.83
2019-04-23T13:28:09.538Z,5.10
2019-04-23T13:33:21.151Z,5.23
2019-04-23T13:35:53.324Z,5.33
2019-04-23T13:43:29.733Z,5.57
2019-04-23T13:48:31.217Z,5.30
2019-04-23T13:50:59.940Z,4.60
2019-04-23T13:53:42.647Z,5.17
2019-04-23T13:56:03.739Z,5.20
2019-04-23T13:58:32.882Z,5.33
2019-04-23T14:01:07.442Z,5.20
2019-04-23T14:03:42.914Z,5.37
2019-04-23T14:06:18.094Z,5.07
2019-04-23T14:08:47.277Z,5.97
2019-04-23T14:13:52.045Z,5.10
2019-04-23T14:16:29.665Z,5.50
2019-04-23T14:18:55.963Z,5.70
2019-04-23T14:28:54.627Z,5.50
2019-04-23T14:31:21.870Z,5.10
2019-04-23T14:44:25.617Z,5.60
2019-04-23T14:49:30.503Z,5.57
2019-04-23T14:51:58.531Z,4.60
2019-04-23T14:57:09.923Z,4.63
2019-04-23T14:59:21.505Z,5.47
2019-04-23T15:02:04.677Z,5.37
2019-04-23T15:04:39.793Z,5.80
2019-04-23T15:07:16.865Z,5.67
2019-04-23T15:09:53.532Z,5.70
2019-04-23T15:12:27.762Z,6.03
2019-04-23T15:14:51.208Z,5.87
2019-04-23T15:17:20.581Z,5.23
2019-04-23T15:19:58.106Z,5.57
2019-04-23T15:25:10.705Z,5.57
2019-04-23T15:29:58.107Z,4.77
2019-04-23T15:32:54.474Z,5.40
2019-04-23T15:35:25.310Z,6.27
2019-04-23T15:40:16.501Z,5.43
2019-04-23T15:42:58.451Z,5.17
2019-04-23T15:45:15.143Z,5.73
2019-04-23T15:48:00.577Z,5.10
2019-04-23T15:55:45.860Z,5.00
2019-04-23T15:58:09.945Z,5.20
2019-04-23T16:00:25.902Z,5.17
2019-04-23T16:02:34.384Z,5.07
2019-04-23T16:05:06.715Z,5.57
2019-04-23T16:07:54.892Z,5.07
2019-04-23T16:10:37.750Z,4.50
2019-04-23T16:13:13.044Z,4.70
2019-04-23T16:15:43.385Z,5.07
2019-04-23T16:18:35.189Z,4.87
2019-04-23T16:21:14.448Z,5.03
2019-04-23T16:23:37.525Z,5.13
2019-04-23T16:26:12.050Z,5.13
2019-04-23T16:29:01.179Z,5.10
2019-04-23T16:31:26.572Z,5.90
2019-04-23T16:33:59.012Z,5.63
2019-04-23T16:36:23.130Z,5.23
2019-04-23T16:38:56.532Z,5.90
2019-04-23T16:41:27.837Z,5.20
2019-04-23T16:44:09.422Z,5.20
2019-04-23T16:46:31.387Z,5.80
2019-04-23T16:49:13.066Z,5.63
2019-04-23T16:54:09.903Z,5.50
2019-04-23T16:56:55.369Z,5.90
2019-04-23T16:59:13.603Z,5.67
2019-04-23T17:01:44.351Z,5.50
2019-04-23T17:04:18.262Z,5.00
2019-04-23T17:06:44.295Z,5.10
2019-04-23T17:11:50.696Z,5.60
2019-04-23T17:16:41.678Z,5.90
2019-04-23T17:22:02.797Z,5.13
2019-04-23T17:24:29.905Z,5.30
2019-04-23T17:27:14.926Z,5.27
2019-04-23T17:29:34.725Z,5.87
2019-04-23T17:32:18.122Z,5.30
2019-04-23T17:35:04.826Z,5.47
2019-04-23T17:42:56.291Z,5.33
2019-04-23T17:48:12.871Z,5.33
2019-04-23T17:50:52.691Z,5.57
2019-04-23T17:53:21.643Z,5.67
2019-04-23T17:56:06.314Z,5.77
2019-04-23T18:01:17.728Z,5.20
2019-04-23T18:03:44.163Z,6.20
2019-04-23T18:06:27.666Z,5.80
2019-04-23T18:08:36.132Z,5.40
2019-04-23T18:13:51.201Z,5.37
2019-04-23T18:24:50.271Z,6.53
2019-04-23T18:29:54.824Z,5.90
2019-04-23T18:33:33.942Z,6.30
2019-04-23T18:35:19.255Z,6.30
2019-04-23T18:37:49.140Z,6.97
2019-04-23T18:40:21.336Z,6.50
2019-04-23T18:42:58.103Z,6.67
2019-04-23T18:45:32.742Z,6.00
2019-04-23T18:48:31.396Z,6.17
2019-04-23T18:50:53.038Z,6.53
2019-04-23T18:53:26.837Z,6.43
2019-04-23T18:58:22.368Z,6.70
2019-04-23T19:01:12.542Z,6.33
2019-04-23T19:03:55.345Z,6.87
2019-04-23T19:06:37.719Z,6.03
2019-04-23T19:10:11.797Z,7.00
2019-04-23T19:12:36.316Z,7.77
2019-04-23T19:15:17.360Z,7.77
2019-04-23T19:20:15.941Z,6.60
2019-04-23T19:22:46.835Z,6.67
2019-04-23T19:25:16.345Z,6.50
2019-04-23T19:27:45.874Z,6.87
2019-04-23T19:30:26.419Z,6.20
2019-04-23T19:33:05.612Z,6.67
2019-04-23T19:35:58.516Z,6.30
2019-04-23T19:38:12.995Z,6.27
2019-04-23T19:40:55.252Z,6.70
2019-04-23T19:43:11.212Z,6.30
2019-04-23T19:45:58.120Z,6.67
2019-04-23T19:50:55.466Z,6.50
2019-04-23T19:56:03.983Z,6.90
2019-04-23T19:58:31.064Z,6.17
2019-04-23T20:01:10.330Z,6.77
2019-04-23T20:03:37.802Z,6.47
2019-04-23T20:06:03.152Z,6.53
2019-04-23T20:13:45.376Z,6.10
2019-04-23T20:16:16.175Z,6.50
2019-04-23T20:21:03.780Z,7.23
2019-04-23T20:26:17.112Z,7.67
2019-04-23T20:32:57.574Z,7.00
2019-04-23T20:34:24.462Z,7.27
2019-04-23T20:36:48.134Z,6.60
2019-04-23T20:39:33.221Z,7.03
2019-04-23T20:44:42.444Z,8.50
2019-04-23T20:49:42.769Z,8.33
2019-04-23T20:54:51.733Z,8.20
2019-04-23T20:57:42.922Z,8.17
2019-04-23T21:03:25.949Z,7.27
2019-04-23T21:10:38.618Z,7.33
2019-04-23T21:18:15.397Z,7.07
2019-04-23T21:23:18.981Z,6.43
2019-04-23T21:25:50.639Z,7.13
2019-04-23T21:36:18.397Z,7.37
2019-04-23T21:39:06.177Z,8.27
2019-04-23T21:41:51.006Z,7.27
2019-04-23T21:44:14.485Z,6.80
2019-04-23T21:54:15.361Z,7.30
2019-04-23T21:56:48.625Z,6.53
2019-04-23T21:59:10.143Z,6.53
2019-04-23T22:01:58.870Z,7.40
2019-04-23T22:06:52.885Z,6.60
2019-04-23T22:12:05.887Z,7.40
2019-04-23T22:19:38.321Z,7.40
2019-04-23T22:22:04.011Z,6.23
2019-04-23T22:24:43.164Z,6.53
2019-04-23T22:27:13.249Z,8.20
2019-04-23T22:32:17.433Z,7.30
2019-04-23T22:37:35.372Z,7.40
2019-04-23T22:39:57.465Z,7.07
2019-04-23T22:42:41.122Z,6.87
2019-04-23T22:45:10.666Z,6.27
2019-04-23T22:47:32.374Z,7.23
2019-04-23T22:50:02.571Z,6.77
2019-04-23T22:52:48.510Z,6.80
2019-04-23T22:55:09.311Z,6.90
2019-04-23T22:57:56.691Z,6.87
2019-04-23T23:00:14.270Z,6.87
2019-04-23T23:03:06.600Z,6.70
2019-04-23T23:05:56.285Z,7.50
2019-04-23T23:18:17.942Z,6.67
2019-04-23T23:20:57.452Z,6.83
2019-04-23T23:25:54.221Z,6.97
2019-04-23T23:28:31.374Z,6.63
2019-04-23T23:31:04.067Z,7.37
2019-04-23T23:33:35.926Z,7.17
2019-04-23T23:36:08.665Z,7.20
2019-04-23T23:41:16.933Z,7.27
2019-04-23T23:43:59.616Z,7.07
2019-04-23T23:46:22.117Z,6.77
2019-04-23T23:48:41.961Z,6.53
2019-04-23T23:51:16.982Z,7.40
